sensor_id;sensor_type;location;lat;lon;timestamp;temperature;humidity
51908;DHT22;39320;53.214;6.556;2023-03-01T00:02:02;5.30;99.90
51908;DHT22;39320;53.214;6.556;2023-03-01T00:04:30;5.20;99.90
51908;DHT22;39320;53.214;6.556;2023-03-01T00:06:56;5.20;99.90
51908;DHT22;39320;53.214;6.556;2023-03-01T00:09:22;5.30;99.90
51908;DHT22;39320;53.214;6.556;2023-03-01T00:11:47;5.20;99.90
51908;DHT22;39320;53.214;6.556;2023-03-01T00:14:14;5.10;99.90
51908;DHT22;39320;53.214;6.556;2023-03-01T00:16:43;5.10;99.90
51908;DHT22;39320;53.214;6.556;2023-03-01T00:19:14;5.10;99.90
51908;DHT22;39320;53.214;6.556;2023-03-01T00:21:40;5.10;99.90
51908;DHT22;39320;53.214;6.556;2023-03-01T00:24:06;5.10;99.90
51908;DHT22;39320;53.214;6.556;2023-03-01T00:26:32;5.10;99.90
51908;DHT22;39320;53.214;6.556;2023-03-01T00:28:59;5.10;99.90
51908;DHT22;39320;53.214;6.556;2023-03-01T00:31:30;5.10;99.90
51908;DHT22;39320;53.214;6.556;2023-03-01T00:33:58;5.00;99.90
51908;DHT22;39320;53.214;6.556;2023-03-01T00:36:30;5.10;99.90
51908;DHT22;39320;53.214;6.556;2023-03-01T00:38:57;5.00;99.90
51908;DHT22;39320;53.214;6.556;2023-03-01T00:41:23;5.00;99.90
51908;DHT22;39320;53.214;6.556;2023-03-01T00:43:50;5.00;99.90
51908;DHT22;39320;53.214;6.556;2023-03-01T00:49:15;5.10;99.90
51908;DHT22;39320;53.214;6.556;2023-03-01T00:51:41;5.10;99.90
51908;DHT22;39320;53.214;6.556;2023-03-01T00:54:10;5.10;99.90
51908;DHT22;39320;53.214;6.556;2023-03-01T00:56:36;5.10;99.90
51908;DHT22;39320;53.214;6.556;2023-03-01T00:59:01;5.10;99.90
51908;DHT22;39320;53.214;6.556;2023-03-01T01:01:29;5.20;99.90
51908;DHT22;39320;53.214;6.556;2023-03-01T01:03:58;5.20;99.90
51908;DHT22;39320;53.214;6.556;2023-03-01T01:06:39;5.10;99.90
51908;DHT22;39320;53.214;6.556;2023-03-01T01:09:08;5.10;99.90
51908;DHT22;39320;53.214;6.556;2023-03-01T01:11:35;5.00;99.90
51908;DHT22;39320;53.214;6.556;2023-03-01T01:14:02;5.00;99.90
51908;DHT22;39320;53.214;6.556;2023-03-01T01:16:29;5.00;99.90
51908;DHT22;39320;53.214;6.556;2023-03-01T01:18:55;5.00;99.90
51908;DHT22;39320;53.214;6.556;2023-03-01T01:21:23;5.00;99.90
51908;DHT22;39320;53.214;6.556;2023-03-01T01:23:49;5.00;99.90
51908;DHT22;39320;53.214;6.556;2023-03-01T01:26:21;5.10;99.90
51908;DHT22;39320;53.214;6.556;2023-03-01T01:28:58;5.10;99.90
51908;DHT22;39320;53.214;6.556;2023-03-01T01:31:28;5.20;99.90
51908;DHT22;39320;53.214;6.556;2023-03-01T01:33:57;5.20;99.90
51908;DHT22;39320;53.214;6.556;2023-03-01T01:36:24;5.10;99.90
51908;DHT22;39320;53.214;6.556;2023-03-01T01:38:50;5.20;99.90
51908;DHT22;39320;53.214;6.556;2023-03-01T01:41:16;5.20;99.90
51908;DHT22;39320;53.214;6.556;2023-03-01T01:43:44;5.20;99.90
51908;DHT22;39320;53.214;6.556;2023-03-01T01:46:16;5.20;99.90
51908;DHT22;39320;53.214;6.556;2023-03-01T01:48:49;5.10;99.90
51908;DHT22;39320;53.214;6.556;2023-03-01T01:51:19;5.10;99.90
51908;DHT22;39320;53.214;6.556;2023-03-01T01:53:53;5.10;99.90
51908;DHT22;39320;53.214;6.556;2023-03-01T01:56:20;5.10;99.90
51908;DHT22;39320;53.214;6.556;2023-03-01T01:58:47;5.10;99.90
51908;DHT22;39320;53.214;6.556;2023-03-01T02:01:13;5.00;99.90
51908;DHT22;39320;53.214;6.556;2023-03-01T02:03:42;5.00;99.90
51908;DHT22;39320;53.214;6.556;2023-03-01T02:06:19;5.00;99.90
51908;DHT22;39320;53.214;6.556;2023-03-01T02:08:48;5.00;99.90
51908;DHT22;39320;53.214;6.556;2023-03-01T02:11:15;4.90;99.90
51908;DHT22;39320;53.214;6.556;2023-03-01T02:13:41;4.90;99.90
51908;DHT22;39320;53.214;6.556;2023-03-01T02:16:09;4.90;99.90
51908;DHT22;39320;53.214;6.556;2023-03-01T02:18:36;4.90;99.90
51908;DHT22;39320;53.214;6.556;2023-03-01T02:24:17;4.80;99.90
51908;DHT22;39320;53.214;6.556;2023-03-01T02:26:51;4.80;99.90
51908;DHT22;39320;53.214;6.556;2023-03-01T02:29:18;4.80;99.90
51908;DHT22;39320;53.214;6.556;2023-03-01T02:31:44;4.70;99.90
51908;DHT22;39320;53.214;6.556;2023-03-01T02:34:16;4.70;99.90
51908;DHT22;39320;53.214;6.556;2023-03-01T02:39:48;4.60;99.90
51908;DHT22;39320;53.214;6.556;2023-03-01T02:42:23;4.50;99.90
51908;DHT22;39320;53.214;6.556;2023-03-01T02:44:51;4.50;99.90
51908;DHT22;39320;53.214;6.556;2023-03-01T02:47:17;4.50;99.90
51908;DHT22;39320;53.214;6.556;2023-03-01T02:49:43;4.50;99.90
51908;DHT22;39320;53.214;6.556;2023-03-01T02:57:30;4.50;99.90
51908;DHT22;39320;53.214;6.556;2023-03-01T03:00:02;4.50;99.90
51908;DHT22;39320;53.214;6.556;2023-03-01T03:02:32;4.50;99.90
51908;DHT22;39320;53.214;6.556;2023-03-01T03:05:10;4.40;99.90
51908;DHT22;39320;53.214;6.556;2023-03-01T03:07:39;4.40;99.90
51908;DHT22;39320;53.214;6.556;2023-03-01T03:10:07;4.40;99.90
51908;DHT22;39320;53.214;6.556;2023-03-01T03:12:34;4.30;99.90
51908;DHT22;39320;53.214;6.556;2023-03-01T03:15:00;4.30;99.90
51908;DHT22;39320;53.214;6.556;2023-03-01T03:17:25;4.30;99.90
51908;DHT22;39320;53.214;6.556;2023-03-01T03:19:51;4.30;99.90
51908;DHT22;39320;53.214;6.556;2023-03-01T03:22:17;4.30;99.90
51908;DHT22;39320;53.214;6.556;2023-03-01T03:24:43;4.40;99.90
51908;DHT22;39320;53.214;6.556;2023-03-01T03:27:08;4.30;99.90
51908;DHT22;39320;53.214;6.556;2023-03-01T03:29:34;4.20;99.90
51908;DHT22;39320;53.214;6.556;2023-03-01T03:32:00;4.10;99.90
51908;DHT22;39320;53.214;6.556;2023-03-01T03:34:26;4.20;99.90
51908;DHT22;39320;53.214;6.556;2023-03-01T03:36:55;4.00;99.90
51908;DHT22;39320;53.214;6.556;2023-03-01T03:39:27;4.10;99.90
51908;DHT22;39320;53.214;6.556;2023-03-01T03:41:53;4.10;99.90
51908;DHT22;39320;53.214;6.556;2023-03-01T03:44:21;4.10;99.90
51908;DHT22;39320;53.214;6.556;2023-03-01T03:46:47;4.10;99.90
51908;DHT22;39320;53.214;6.556;2023-03-01T03:49:12;4.00;99.90
51908;DHT22;39320;53.214;6.556;2023-03-01T03:51:38;4.00;99.90
51908;DHT22;39320;53.214;6.556;2023-03-01T03:54:04;4.00;99.90
51908;DHT22;39320;53.214;6.556;2023-03-01T03:56:30;4.00;99.90
51908;DHT22;39320;53.214;6.556;2023-03-01T03:58:56;3.90;99.90
51908;DHT22;39320;53.214;6.556;2023-03-01T04:01:22;3.90;99.90
51908;DHT22;39320;53.214;6.556;2023-03-01T04:03:47;3.90;99.90
51908;DHT22;39320;53.214;6.556;2023-03-01T04:06:14;3.90;99.90
51908;DHT22;39320;53.214;6.556;2023-03-01T04:08:40;3.90;99.90
51908;DHT22;39320;53.214;6.556;2023-03-01T04:11:06;4.00;99.90
51908;DHT22;39320;53.214;6.556;2023-03-01T04:13:52;4.00;99.90
51908;DHT22;39320;53.214;6.556;2023-03-01T04:16:18;4.00;99.90
51908;DHT22;39320;53.214;6.556;2023-03-01T04:18:45;4.10;99.90
51908;DHT22;39320;53.214;6.556;2023-03-01T04:21:11;4.00;99.90
51908;DHT22;39320;53.214;6.556;2023-03-01T04:23:37;4.10;99.90
51908;DHT22;39320;53.214;6.556;2023-03-01T04:26:04;4.00;99.90
51908;DHT22;39320;53.214;6.556;2023-03-01T04:28:38;4.70;99.90
51908;DHT22;39320;53.214;6.556;2023-03-01T04:31:11;4.00;99.90
51908;DHT22;39320;53.214;6.556;2023-03-01T04:33:54;4.00;99.90
51908;DHT22;39320;53.214;6.556;2023-03-01T04:36:25;3.90;99.90
51908;DHT22;39320;53.214;6.556;2023-03-01T04:38:52;3.90;99.90
51908;DHT22;39320;53.214;6.556;2023-03-01T04:41:20;3.80;99.90
51908;DHT22;39320;53.214;6.556;2023-03-01T04:43:46;3.80;99.90
51908;DHT22;39320;53.214;6.556;2023-03-01T04:46:15;3.90;99.90
51908;DHT22;39320;53.214;6.556;2023-03-01T04:48:42;3.70;99.90
51908;DHT22;39320;53.214;6.556;2023-03-01T04:51:08;3.70;99.90
51908;DHT22;39320;53.214;6.556;2023-03-01T04:53:35;3.70;99.90
51908;DHT22;39320;53.214;6.556;2023-03-01T04:56:04;3.60;99.90
51908;DHT22;39320;53.214;6.556;2023-03-01T04:58:30;3.60;99.90
51908;DHT22;39320;53.214;6.556;2023-03-01T05:00:56;4.70;99.90
51908;DHT22;39320;53.214;6.556;2023-03-01T05:03:21;3.60;99.90
51908;DHT22;39320;53.214;6.556;2023-03-01T05:05:49;3.60;99.90
51908;DHT22;39320;53.214;6.556;2023-03-01T05:08:16;3.60;99.90
51908;DHT22;39320;53.214;6.556;2023-03-01T05:10:49;3.60;99.90
51908;DHT22;39320;53.214;6.556;2023-03-01T05:13:15;3.70;99.90
51908;DHT22;39320;53.214;6.556;2023-03-01T05:15:54;3.50;99.90
51908;DHT22;39320;53.214;6.556;2023-03-01T05:18:20;3.60;99.90
51908;DHT22;39320;53.214;6.556;2023-03-01T05:20:46;3.50;99.90
51908;DHT22;39320;53.214;6.556;2023-03-01T05:23:12;3.50;99.90
51908;DHT22;39320;53.214;6.556;2023-03-01T05:25:38;3.50;99.90
51908;DHT22;39320;53.214;6.556;2023-03-01T05:28:12;3.60;99.90
51908;DHT22;39320;53.214;6.556;2023-03-01T05:30:38;3.50;99.90
51908;DHT22;39320;53.214;6.556;2023-03-01T05:33:07;3.70;99.90
51908;DHT22;39320;53.214;6.556;2023-03-01T05:35:42;3.40;99.90
51908;DHT22;39320;53.214;6.556;2023-03-01T05:38:10;3.50;99.90
51908;DHT22;39320;53.214;6.556;2023-03-01T05:40:39;3.40;99.90
51908;DHT22;39320;53.214;6.556;2023-03-01T05:43:06;4.20;99.90
51908;DHT22;39320;53.214;6.556;2023-03-01T05:45:32;3.40;99.90
51908;DHT22;39320;53.214;6.556;2023-03-01T05:47:58;3.40;99.90
51908;DHT22;39320;53.214;6.556;2023-03-01T05:50:29;3.40;99.90
51908;DHT22;39320;53.214;6.556;2023-03-01T05:53:01;3.30;99.90
51908;DHT22;39320;53.214;6.556;2023-03-01T05:55:29;3.40;99.90
51908;DHT22;39320;53.214;6.556;2023-03-01T05:57:57;3.30;99.90
51908;DHT22;39320;53.214;6.556;2023-03-01T06:00:23;3.30;99.90
51908;DHT22;39320;53.214;6.556;2023-03-01T06:02:49;3.00;99.90
51908;DHT22;39320;53.214;6.556;2023-03-01T06:05:18;3.40;99.90
51908;DHT22;39320;53.214;6.556;2023-03-01T06:07:44;3.40;99.90
51908;DHT22;39320;53.214;6.556;2023-03-01T06:10:11;3.30;99.90
51908;DHT22;39320;53.214;6.556;2023-03-01T06:12:39;3.30;99.90
51908;DHT22;39320;53.214;6.556;2023-03-01T06:15:06;3.30;99.90
51908;DHT22;39320;53.214;6.556;2023-03-01T06:17:33;3.30;99.90
51908;DHT22;39320;53.214;6.556;2023-03-01T06:20:12;3.30;99.90
51908;DHT22;39320;53.214;6.556;2023-03-01T06:22:38;3.30;99.90
51908;DHT22;39320;53.214;6.556;2023-03-01T06:25:05;3.30;99.90
51908;DHT22;39320;53.214;6.556;2023-03-01T06:27:31;3.40;99.90
51908;DHT22;39320;53.214;6.556;2023-03-01T06:29:57;3.40;99.90
51908;DHT22;39320;53.214;6.556;2023-03-01T06:32:23;3.60;99.90
51908;DHT22;39320;53.214;6.556;2023-03-01T06:34:49;3.40;99.90
51908;DHT22;39320;53.214;6.556;2023-03-01T06:37:15;3.40;99.90
51908;DHT22;39320;53.214;6.556;2023-03-01T06:39:41;3.30;99.90
51908;DHT22;39320;53.214;6.556;2023-03-01T06:42:08;3.20;99.90
51908;DHT22;39320;53.214;6.556;2023-03-01T06:44:35;3.30;99.90
51908;DHT22;39320;53.214;6.556;2023-03-01T06:47:04;3.30;99.90
51908;DHT22;39320;53.214;6.556;2023-03-01T06:49:33;3.30;99.90
51908;DHT22;39320;53.214;6.556;2023-03-01T06:51:59;3.40;99.90
51908;DHT22;39320;53.214;6.556;2023-03-01T06:54:28;3.50;99.90
51908;DHT22;39320;53.214;6.556;2023-03-01T06:56:54;3.50;99.90
51908;DHT22;39320;53.214;6.556;2023-03-01T06:59:20;3.60;99.90
51908;DHT22;39320;53.214;6.556;2023-03-01T07:01:46;3.60;99.90
51908;DHT22;39320;53.214;6.556;2023-03-01T07:04:13;3.60;99.90
51908;DHT22;39320;53.214;6.556;2023-03-01T07:06:39;3.60;99.90
51908;DHT22;39320;53.214;6.556;2023-03-01T07:09:04;3.60;99.90
51908;DHT22;39320;53.214;6.556;2023-03-01T07:11:30;3.60;99.90
51908;DHT22;39320;53.214;6.556;2023-03-01T07:13:59;3.50;99.90
51908;DHT22;39320;53.214;6.556;2023-03-01T07:16:25;3.60;99.90
51908;DHT22;39320;53.214;6.556;2023-03-01T07:18:54;3.60;99.90
51908;DHT22;39320;53.214;6.556;2023-03-01T07:21:20;3.60;99.90
51908;DHT22;39320;53.214;6.556;2023-03-01T07:23:47;3.60;99.90
51908;DHT22;39320;53.214;6.556;2023-03-01T07:26:14;3.60;99.90
51908;DHT22;39320;53.214;6.556;2023-03-01T07:28:40;3.70;99.90
51908;DHT22;39320;53.214;6.556;2023-03-01T07:31:09;3.70;99.90
51908;DHT22;39320;53.214;6.556;2023-03-01T07:33:34;3.80;99.90
51908;DHT22;39320;53.214;6.556;2023-03-01T07:36:04;3.90;99.90
51908;DHT22;39320;53.214;6.556;2023-03-01T07:38:30;3.90;99.90
51908;DHT22;39320;53.214;6.556;2023-03-01T07:41:00;3.90;99.90
51908;DHT22;39320;53.214;6.556;2023-03-01T07:43:27;4.00;99.90
51908;DHT22;39320;53.214;6.556;2023-03-01T07:45:53;4.00;99.90
51908;DHT22;39320;53.214;6.556;2023-03-01T07:48:19;4.00;99.90
51908;DHT22;39320;53.214;6.556;2023-03-01T07:50:45;4.20;99.90
51908;DHT22;39320;53.214;6.556;2023-03-01T07:53:11;4.10;99.90
51908;DHT22;39320;53.214;6.556;2023-03-01T07:55:37;4.20;99.90
51908;DHT22;39320;53.214;6.556;2023-03-01T07:58:03;4.20;99.90
51908;DHT22;39320;53.214;6.556;2023-03-01T08:00:28;4.20;99.90
51908;DHT22;39320;53.214;6.556;2023-03-01T08:02:54;4.20;99.90
51908;DHT22;39320;53.214;6.556;2023-03-01T08:05:23;4.10;99.90
51908;DHT22;39320;53.214;6.556;2023-03-01T08:07:49;4.20;99.90
51908;DHT22;39320;53.214;6.556;2023-03-01T08:10:15;4.30;99.90
51908;DHT22;39320;53.214;6.556;2023-03-01T08:12:42;4.20;99.90
51908;DHT22;39320;53.214;6.556;2023-03-01T08:15:10;4.30;99.90
51908;DHT22;39320;53.214;6.556;2023-03-01T08:17:36;4.30;99.90
51908;DHT22;39320;53.214;6.556;2023-03-01T08:20:02;4.40;99.90
51908;DHT22;39320;53.214;6.556;2023-03-01T08:22:31;4.40;99.90
51908;DHT22;39320;53.214;6.556;2023-03-01T08:24:57;4.40;99.90
51908;DHT22;39320;53.214;6.556;2023-03-01T08:27:22;4.40;99.90
51908;DHT22;39320;53.214;6.556;2023-03-01T08:29:51;4.40;99.90
51908;DHT22;39320;53.214;6.556;2023-03-01T08:32:17;4.40;99.90
51908;DHT22;39320;53.214;6.556;2023-03-01T08:34:46;4.50;99.90
51908;DHT22;39320;53.214;6.556;2023-03-01T08:37:14;4.50;99.90
51908;DHT22;39320;53.214;6.556;2023-03-01T08:39:40;4.40;99.90
51908;DHT22;39320;53.214;6.556;2023-03-01T08:42:06;4.50;99.90
51908;DHT22;39320;53.214;6.556;2023-03-01T08:44:32;4.60;99.90
51908;DHT22;39320;53.214;6.556;2023-03-01T08:46:59;4.90;99.90
51908;DHT22;39320;53.214;6.556;2023-03-01T08:49:25;4.70;99.90
51908;DHT22;39320;53.214;6.556;2023-03-01T08:51:52;4.70;99.90
51908;DHT22;39320;53.214;6.556;2023-03-01T08:54:20;5.30;99.90
51908;DHT22;39320;53.214;6.556;2023-03-01T08:56:47;4.80;99.90
51908;DHT22;39320;53.214;6.556;2023-03-01T08:59:16;4.90;99.90
51908;DHT22;39320;53.214;6.556;2023-03-01T09:01:43;4.80;99.90
51908;DHT22;39320;53.214;6.556;2023-03-01T09:04:10;4.90;99.90
51908;DHT22;39320;53.214;6.556;2023-03-01T09:06:38;4.90;99.90
51908;DHT22;39320;53.214;6.556;2023-03-01T09:09:13;4.90;99.90
51908;DHT22;39320;53.214;6.556;2023-03-01T09:11:40;5.30;99.90
51908;DHT22;39320;53.214;6.556;2023-03-01T09:14:06;5.00;99.90
51908;DHT22;39320;53.214;6.556;2023-03-01T09:16:32;5.00;99.90
51908;DHT22;39320;53.214;6.556;2023-03-01T09:19:02;5.00;99.90
51908;DHT22;39320;53.214;6.556;2023-03-01T09:21:28;5.10;99.90
51908;DHT22;39320;53.214;6.556;2023-03-01T09:23:56;5.10;99.90
51908;DHT22;39320;53.214;6.556;2023-03-01T09:26:27;5.10;99.90
51908;DHT22;39320;53.214;6.556;2023-03-01T09:28:58;5.10;99.90
51908;DHT22;39320;53.214;6.556;2023-03-01T09:31:24;5.20;99.90
51908;DHT22;39320;53.214;6.556;2023-03-01T09:33:52;5.20;99.90
51908;DHT22;39320;53.214;6.556;2023-03-01T09:36:21;5.20;99.90
51908;DHT22;39320;53.214;6.556;2023-03-01T09:38:48;5.20;99.90
51908;DHT22;39320;53.214;6.556;2023-03-01T09:44:00;5.30;99.90
51908;DHT22;39320;53.214;6.556;2023-03-01T09:46:31;5.30;99.90
51908;DHT22;39320;53.214;6.556;2023-03-01T09:49:07;5.30;99.90
51908;DHT22;39320;53.214;6.556;2023-03-01T09:51:36;5.30;99.90
51908;DHT22;39320;53.214;6.556;2023-03-01T09:54:03;5.40;99.90
51908;DHT22;39320;53.214;6.556;2023-03-01T09:56:43;5.30;99.90
51908;DHT22;39320;53.214;6.556;2023-03-01T09:59:30;5.30;99.90
51908;DHT22;39320;53.214;6.556;2023-03-01T10:02:11;5.40;99.90
51908;DHT22;39320;53.214;6.556;2023-03-01T10:04:51;5.40;99.90
51908;DHT22;39320;53.214;6.556;2023-03-01T10:10:06;5.50;99.90
51908;DHT22;39320;53.214;6.556;2023-03-01T10:12:39;5.50;99.90
51908;DHT22;39320;53.214;6.556;2023-03-01T10:15:11;5.60;99.90
51908;DHT22;39320;53.214;6.556;2023-03-01T10:17:50;5.60;99.90
51908;DHT22;39320;53.214;6.556;2023-03-01T10:20:36;5.60;99.90
51908;DHT22;39320;53.214;6.556;2023-03-01T10:23:08;5.70;99.90
51908;DHT22;39320;53.214;6.556;2023-03-01T10:28:17;5.70;99.90
51908;DHT22;39320;53.214;6.556;2023-03-01T10:30:43;5.80;99.90
51908;DHT22;39320;53.214;6.556;2023-03-01T10:33:17;5.80;99.90
51908;DHT22;39320;53.214;6.556;2023-03-01T10:35:49;5.80;99.90
51908;DHT22;39320;53.214;6.556;2023-03-01T10:38:16;5.80;99.90
51908;DHT22;39320;53.214;6.556;2023-03-01T10:40:58;5.80;99.90
51908;DHT22;39320;53.214;6.556;2023-03-01T10:43:26;5.90;99.90
51908;DHT22;39320;53.214;6.556;2023-03-01T10:45:55;5.90;99.90
51908;DHT22;39320;53.214;6.556;2023-03-01T10:48:25;5.30;99.90
51908;DHT22;39320;53.214;6.556;2023-03-01T10:53:36;6.00;99.90
51908;DHT22;39320;53.214;6.556;2023-03-01T10:56:13;6.00;99.90
51908;DHT22;39320;53.214;6.556;2023-03-01T10:59:00;6.00;99.90
51908;DHT22;39320;53.214;6.556;2023-03-01T11:01:29;6.10;99.90
51908;DHT22;39320;53.214;6.556;2023-03-01T11:06:33;6.10;99.90
51908;DHT22;39320;53.214;6.556;2023-03-01T11:09:20;6.20;99.90
51908;DHT22;39320;53.214;6.556;2023-03-01T11:11:52;6.20;99.90
51908;DHT22;39320;53.214;6.556;2023-03-01T11:14:22;6.90;99.90
51908;DHT22;39320;53.214;6.556;2023-03-01T11:17:21;6.30;99.90
51908;DHT22;39320;53.214;6.556;2023-03-01T11:20:20;6.30;99.90
51908;DHT22;39320;53.214;6.556;2023-03-01T11:22:53;6.40;99.90
51908;DHT22;39320;53.214;6.556;2023-03-01T11:25:37;6.30;99.90
51908;DHT22;39320;53.214;6.556;2023-03-01T11:28:05;6.40;99.90
51908;DHT22;39320;53.214;6.556;2023-03-01T11:30:40;6.40;99.90
51908;DHT22;39320;53.214;6.556;2023-03-01T11:33:58;6.50;99.90
51908;DHT22;39320;53.214;6.556;2023-03-01T11:38:40;6.60;99.90
51908;DHT22;39320;53.214;6.556;2023-03-01T11:41:18;6.70;99.90
51908;DHT22;39320;53.214;6.556;2023-03-01T11:43:57;6.80;99.90
51908;DHT22;39320;53.214;6.556;2023-03-01T11:52:01;6.50;99.90
51908;DHT22;39320;53.214;6.556;2023-03-01T12:08:38;7.30;99.90
51908;DHT22;39320;53.214;6.556;2023-03-01T12:24:52;7.60;99.90
51908;DHT22;39320;53.214;6.556;2023-03-01T12:32:56;7.80;99.90
51908;DHT22;39320;53.214;6.556;2023-03-01T12:44:13;8.00;99.90
51908;DHT22;39320;53.214;6.556;2023-03-01T12:50:20;8.10;99.90
51908;DHT22;39320;53.214;6.556;2023-03-01T12:52:55;8.10;99.90
51908;DHT22;39320;53.214;6.556;2023-03-01T12:55:35;8.20;99.90
51908;DHT22;39320;53.214;6.556;2023-03-01T13:07:31;8.60;99.90
51908;DHT22;39320;53.214;6.556;2023-03-01T13:10:29;8.70;99.90
51908;DHT22;39320;53.214;6.556;2023-03-01T13:23:07;8.30;99.90
51908;DHT22;39320;53.214;6.556;2023-03-01T13:25:37;8.90;99.90
51908;DHT22;39320;53.214;6.556;2023-03-01T13:33:51;8.90;99.90
51908;DHT22;39320;53.214;6.556;2023-03-01T13:36:47;8.90;99.90
51908;DHT22;39320;53.214;6.556;2023-03-01T13:39:39;8.90;99.90
51908;DHT22;39320;53.214;6.556;2023-03-01T13:42:35;9.00;99.90
51908;DHT22;39320;53.214;6.556;2023-03-01T13:45:14;9.00;99.90
51908;DHT22;39320;53.214;6.556;2023-03-01T13:47:46;9.10;99.90
51908;DHT22;39320;53.214;6.556;2023-03-01T13:50:21;9.20;99.90
51908;DHT22;39320;53.214;6.556;2023-03-01T13:53:03;9.20;99.90
51908;DHT22;39320;53.214;6.556;2023-03-01T13:55:45;9.30;99.90
51908;DHT22;39320;53.214;6.556;2023-03-01T13:58:31;9.30;99.90
51908;DHT22;39320;53.214;6.556;2023-03-01T14:01:00;9.30;99.90
51908;DHT22;39320;53.214;6.556;2023-03-01T14:03:30;9.40;99.90
51908;DHT22;39320;53.214;6.556;2023-03-01T14:06:14;9.40;99.90
51908;DHT22;39320;53.214;6.556;2023-03-01T14:08:45;9.40;99.90
51908;DHT22;39320;53.214;6.556;2023-03-01T14:19:28;9.40;99.90
51908;DHT22;39320;53.214;6.556;2023-03-01T14:25:05;9.40;99.90
51908;DHT22;39320;53.214;6.556;2023-03-01T14:27:39;9.50;99.90
51908;DHT22;39320;53.214;6.556;2023-03-01T14:30:15;9.50;99.90
51908;DHT22;39320;53.214;6.556;2023-03-01T14:32:42;9.50;99.90
51908;DHT22;39320;53.214;6.556;2023-03-01T14:35:23;9.50;99.90
51908;DHT22;39320;53.214;6.556;2023-03-01T14:37:49;9.50;99.90
51908;DHT22;39320;53.214;6.556;2023-03-01T14:40:28;9.60;99.90
51908;DHT22;39320;53.214;6.556;2023-03-01T14:42:57;9.60;99.90
51908;DHT22;39320;53.214;6.556;2023-03-01T14:45:26;9.70;99.90
51908;DHT22;39320;53.214;6.556;2023-03-01T14:47:53;9.70;99.90
51908;DHT22;39320;53.214;6.556;2023-03-01T14:50:27;9.70;99.90
51908;DHT22;39320;53.214;6.556;2023-03-01T14:52:57;9.70;99.90
51908;DHT22;39320;53.214;6.556;2023-03-01T14:55:35;9.70;99.90
51908;DHT22;39320;53.214;6.556;2023-03-01T14:58:05;9.70;99.90
51908;DHT22;39320;53.214;6.556;2023-03-01T15:00:33;9.80;99.90
51908;DHT22;39320;53.214;6.556;2023-03-01T15:03:40;9.90;99.90
51908;DHT22;39320;53.214;6.556;2023-03-01T15:06:07;10.00;99.90
51908;DHT22;39320;53.214;6.556;2023-03-01T15:08:42;10.00;99.90
51908;DHT22;39320;53.214;6.556;2023-03-01T15:11:21;10.10;99.90
51908;DHT22;39320;53.214;6.556;2023-03-01T15:13:48;10.10;99.90
51908;DHT22;39320;53.214;6.556;2023-03-01T15:16:27;10.20;99.90
51908;DHT22;39320;53.214;6.556;2023-03-01T15:19:03;10.30;99.90
51908;DHT22;39320;53.214;6.556;2023-03-01T15:21:37;10.30;99.90
51908;DHT22;39320;53.214;6.556;2023-03-01T15:27:14;10.30;99.90
51908;DHT22;39320;53.214;6.556;2023-03-01T15:29:48;10.40;99.90
51908;DHT22;39320;53.214;6.556;2023-03-01T15:32:27;10.40;99.90
51908;DHT22;39320;53.214;6.556;2023-03-01T15:35:01;10.50;99.90
51908;DHT22;39320;53.214;6.556;2023-03-01T15:37:48;10.50;99.90
51908;DHT22;39320;53.214;6.556;2023-03-01T15:40:29;10.60;99.90
51908;DHT22;39320;53.214;6.556;2023-03-01T15:43:02;10.40;99.90
51908;DHT22;39320;53.214;6.556;2023-03-01T15:45:30;10.20;99.90
51908;DHT22;39320;53.214;6.556;2023-03-01T15:48:17;10.10;99.90
51908;DHT22;39320;53.214;6.556;2023-03-01T15:50:44;9.90;99.90
51908;DHT22;39320;53.214;6.556;2023-03-01T15:53:19;10.10;99.90
51908;DHT22;39320;53.214;6.556;2023-03-01T15:55:45;10.50;99.90
51908;DHT22;39320;53.214;6.556;2023-03-01T15:58:18;10.70;99.90
51908;DHT22;39320;53.214;6.556;2023-03-01T16:00:47;10.80;99.90
51908;DHT22;39320;53.214;6.556;2023-03-01T16:03:14;11.10;99.90
51908;DHT22;39320;53.214;6.556;2023-03-01T16:05:47;11.60;99.90
51908;DHT22;39320;53.214;6.556;2023-03-01T16:08:13;12.50;99.90
51908;DHT22;39320;53.214;6.556;2023-03-01T16:10:40;13.30;98.90
51908;DHT22;39320;53.214;6.556;2023-03-01T16:13:07;13.70;95.60
51908;DHT22;39320;53.214;6.556;2023-03-01T16:15:33;13.90;93.50
51908;DHT22;39320;53.214;6.556;2023-03-01T16:18:00;14.10;92.30
51908;DHT22;39320;53.214;6.556;2023-03-01T16:20:30;14.50;90.90
51908;DHT22;39320;53.214;6.556;2023-03-01T16:23:01;14.80;90.00
51908;DHT22;39320;53.214;6.556;2023-03-01T16:25:29;15.00;87.60
51908;DHT22;39320;53.214;6.556;2023-03-01T16:27:55;15.10;87.40
51908;DHT22;39320;53.214;6.556;2023-03-01T16:30:28;15.20;87.40
51908;DHT22;39320;53.214;6.556;2023-03-01T16:32:54;15.00;86.70
51908;DHT22;39320;53.214;6.556;2023-03-01T16:35:20;14.50;87.00
51908;DHT22;39320;53.214;6.556;2023-03-01T16:37:49;13.60;89.00
51908;DHT22;39320;53.214;6.556;2023-03-01T16:40:27;12.30;93.50
51908;DHT22;39320;53.214;6.556;2023-03-01T16:42:55;11.00;99.90
51908;DHT22;39320;53.214;6.556;2023-03-01T16:45:27;10.20;99.90
51908;DHT22;39320;53.214;6.556;2023-03-01T16:47:53;9.70;99.90
51908;DHT22;39320;53.214;6.556;2023-03-01T16:50:19;9.30;99.90
51908;DHT22;39320;53.214;6.556;2023-03-01T16:52:45;9.10;99.90
51908;DHT22;39320;53.214;6.556;2023-03-01T16:55:11;8.80;99.90
51908;DHT22;39320;53.214;6.556;2023-03-01T16:57:38;8.60;99.90
51908;DHT22;39320;53.214;6.556;2023-03-01T17:00:05;8.50;99.90
51908;DHT22;39320;53.214;6.556;2023-03-01T17:02:33;8.40;99.90
51908;DHT22;39320;53.214;6.556;2023-03-01T17:04:59;8.40;99.90
51908;DHT22;39320;53.214;6.556;2023-03-01T17:07:31;8.60;99.90
51908;DHT22;39320;53.214;6.556;2023-03-01T17:10:00;8.70;99.90
51908;DHT22;39320;53.214;6.556;2023-03-01T17:12:26;8.80;99.90
51908;DHT22;39320;53.214;6.556;2023-03-01T17:14:55;9.00;99.90
51908;DHT22;39320;53.214;6.556;2023-03-01T17:17:21;8.90;99.90
51908;DHT22;39320;53.214;6.556;2023-03-01T17:19:47;8.50;99.90
51908;DHT22;39320;53.214;6.556;2023-03-01T17:22:14;8.20;99.90
51908;DHT22;39320;53.214;6.556;2023-03-01T17:24:40;8.00;99.90
51908;DHT22;39320;53.214;6.556;2023-03-01T17:27:10;7.80;99.90
51908;DHT22;39320;53.214;6.556;2023-03-01T17:29:37;7.70;99.90
51908;DHT22;39320;53.214;6.556;2023-03-01T17:32:04;7.50;99.90
51908;DHT22;39320;53.214;6.556;2023-03-01T17:34:31;7.40;99.90
51908;DHT22;39320;53.214;6.556;2023-03-01T17:36:57;7.30;99.90
51908;DHT22;39320;53.214;6.556;2023-03-01T17:39:24;7.20;99.90
51908;DHT22;39320;53.214;6.556;2023-03-01T17:41:58;7.10;99.90
51908;DHT22;39320;53.214;6.556;2023-03-01T17:44:24;7.00;99.90
51908;DHT22;39320;53.214;6.556;2023-03-01T17:46:50;6.90;99.90
51908;DHT22;39320;53.214;6.556;2023-03-01T17:49:18;6.80;99.90
51908;DHT22;39320;53.214;6.556;2023-03-01T17:51:44;6.90;99.90
51908;DHT22;39320;53.214;6.556;2023-03-01T17:54:10;7.00;99.90
51908;DHT22;39320;53.214;6.556;2023-03-01T17:56:36;6.80;99.90
51908;DHT22;39320;53.214;6.556;2023-03-01T17:59:04;6.90;99.90
51908;DHT22;39320;53.214;6.556;2023-03-01T18:01:31;6.90;99.90
51908;DHT22;39320;53.214;6.556;2023-03-01T18:03:57;6.80;99.90